Morris, Georgia
Current Conditions -  °F | °C
As of 9:58 AM on Thursday 18 Dec 2014 (Local Time) from KEUF Reporting Station
Clear Clear  
Wind Chill: 45°   Ceiling: Unl
Heat Index: 48°   Visibility: 10mi
Dew Point: 37°   Wind: 6mph
Humidity: 66%   Direction: NA
Pressure: 30.22"   Gusts: NA
Location:  31.79°N, 84.95°W
Report Text: KEUF 181458Z AUTO VRB05KT 10SM CLR 09/03 A3022 RMK AO2 SLP231 T00890028 53010 $
Loading
Personal Weather Stations






























Interactive Weather Map New forecast layout! Learn more

10-Day Weather Forecast

Advertisements
Track Severe Weather on mobile